Winton Post Office, Australia
Current Conditions -  °F | °C
As of 4:00 AM on Saturday 25 Oct 2014 (Local Time) from YLRE Reporting Station
Clear Clear  
Wind Chill: 20°   Ceiling: Unl
Heat Index: 20°   Visibility: 6mi
Dew Point:   Wind: 9mph
Humidity: 28%   Direction: 30°NNE
Pressure: 30"   Gusts: NA
Location:  22.38°S, 143.03°E
Report Text: YLRE 241800Z AUTO 03008KT 9999 // NCD 20/01 Q1016
Loading
Personal Weather Stations






























Interactive Weather Map
Tropical Storm Tracking
New forecast layout! Learn more

10-Day Weather Forecast

Advertisements
Track Severe Weather on mobile